createdAt,value
2018-07-25T05:20:33.110Z,994.8
2018-07-25T05:20:53.238Z,994.8
2018-07-25T05:21:13.384Z,994.8
2018-07-25T05:21:33.513Z,994.8
2018-07-25T05:21:53.664Z,994.8
2018-07-25T05:22:13.786Z,994.9
2018-07-25T05:22:33.946Z,994.9
2018-07-25T05:22:54.128Z,994.8
2018-07-25T05:23:14.277Z,994.8
2018-07-25T05:23:34.479Z,994.9
2018-07-25T05:23:54.640Z,994.9
2018-07-25T05:24:14.815Z,994.9
2018-07-25T05:24:35.006Z,994.9
2018-07-25T05:24:55.160Z,994.9
2018-07-25T05:25:15.321Z,994.9
2018-07-25T05:25:35.457Z,994.9
2018-07-25T05:25:55.582Z,994.9
2018-07-25T05:26:15.739Z,994.9
2018-07-25T05:26:35.889Z,994.9
2018-07-25T05:26:56.046Z,994.9
2018-07-25T05:27:16.192Z,994.9
2018-07-25T05:27:36.343Z,994.9
2018-07-25T05:27:56.509Z,994.8
2018-07-25T05:28:16.663Z,994.9
2018-07-25T05:28:36.804Z,994.9
2018-07-25T05:28:56.976Z,994.8
2018-07-25T05:29:17.133Z,994.8
2018-07-25T05:29:37.272Z,994.8
2018-07-25T05:29:57.430Z,994.8
2018-07-25T05:30:17.651Z,994.9
2018-07-25T05:30:37.724Z,994.8
2018-07-25T05:48:39.958Z,994.9
2018-07-25T05:49:00.093Z,994.9
2018-07-25T05:49:20.271Z,994.9
2018-07-25T05:49:40.400Z,994.9
2018-07-25T05:50:00.569Z,995
2018-07-25T05:50:20.743Z,995
2018-07-25T05:50:40.886Z,995
2018-07-25T05:51:01.044Z,994.9
2018-07-25T05:51:21.194Z,994.9
2018-07-25T05:51:41.376Z,994.9
2018-07-25T05:52:01.534Z,994.9
2018-07-25T05:52:21.693Z,994.9
2018-07-25T05:52:41.836Z,995
2018-07-25T05:53:01.979Z,994.9
2018-07-25T05:53:22.147Z,995
2018-07-25T05:53:42.299Z,995
2018-07-25T05:54:02.465Z,994.9
2018-07-25T05:54:22.783Z,995
2018-07-25T05:54:43.111Z,994.9
2018-07-25T05:55:03.224Z,994.9
2018-07-25T05:55:23.358Z,994.9
2018-07-25T05:55:43.530Z,994.9
2018-07-25T05:56:03.683Z,994.9
2018-07-25T05:56:23.833Z,994.9
2018-07-25T05:56:44.018Z,994.9
2018-07-25T05:57:04.143Z,994.9
2018-07-25T05:57:24.302Z,994.9
2018-07-25T05:57:44.478Z,994.9
2018-07-25T05:58:04.628Z,994.9
2018-07-25T05:58:24.820Z,994.9
2018-07-25T05:58:45.085Z,994.9
2018-07-25T05:59:05.203Z,994.9
2018-07-25T05:59:25.397Z,994.9
2018-07-25T05:59:45.524Z,994.9
2018-07-25T06:00:05.680Z,994.9
2018-07-25T06:00:25.846Z,994.8
2018-07-25T06:00:45.997Z,994.8
2018-07-25T06:01:06.163Z,994.8
2018-07-25T06:01:26.301Z,994.9
2018-07-25T06:01:46.482Z,994.9
2018-07-25T06:02:06.660Z,994.9
2018-07-25T06:02:26.803Z,994.9
2018-07-25T06:02:47.004Z,994.9
2018-07-25T06:03:07.182Z,994.9
2018-07-25T06:03:27.293Z,994.8
2018-07-25T06:03:47.455Z,994.9
2018-07-25T06:04:07.608Z,994.9
2018-07-25T06:04:27.864Z,994.9
2018-07-25T06:04:47.966Z,994.9
2018-07-25T06:05:08.104Z,994.9
2018-07-25T06:05:28.262Z,994.9
2018-07-25T06:05:48.471Z,994.9
2018-07-25T06:06:08.764Z,994.9
2018-07-25T06:06:28.792Z,994.9
2018-07-25T06:06:48.952Z,994.9
2018-07-25T06:07:09.140Z,994.9
2018-07-25T06:07:29.302Z,994.9
2018-07-25T06:07:49.455Z,994.9
2018-07-25T06:08:09.634Z,994.9
2018-07-25T06:08:29.861Z,994.9
2018-07-25T06:08:49.993Z,994.9
2018-07-25T06:09:10.161Z,994.9
2018-07-25T06:09:30.318Z,994.9
2018-07-25T06:09:50.499Z,994.9
2018-07-25T06:10:10.625Z,994.9
2018-07-25T06:10:30.838Z,994.9
2018-07-25T06:10:50.987Z,994.9
2018-07-25T06:11:11.158Z,994.9
2018-07-25T06:11:31.297Z,994.9
2018-07-25T06:11:51.471Z,994.9
2018-07-25T06:12:11.656Z,994.9
2018-07-25T06:12:31.798Z,994.9
2018-07-25T06:12:52.011Z,994.9
2018-07-25T06:13:12.122Z,994.9
2018-07-25T06:13:32.299Z,994.9
2018-07-25T06:13:52.472Z,994.9
2018-07-25T06:14:12.667Z,994.9
2018-07-25T06:14:32.779Z,994.9
2018-07-25T06:14:52.950Z,994.9
2018-07-25T06:15:13.116Z,994.9
2018-07-25T06:15:33.260Z,994.9
2018-07-25T06:15:53.426Z,995
2018-07-25T06:16:13.594Z,995
2018-07-25T06:16:33.760Z,995
2018-07-25T06:16:53.921Z,995
2018-07-25T06:17:14.090Z,995
2018-07-25T06:17:34.236Z,995
2018-07-25T06:17:54.437Z,995
2018-07-25T06:18:14.590Z,995
2018-07-25T06:18:34.750Z,995
2018-07-25T06:18:54.885Z,995
2018-07-25T06:19:15.048Z,995
2018-07-25T06:19:35.219Z,995
2018-07-25T06:19:55.351Z,995
2018-07-25T06:20:15.513Z,995
2018-07-25T06:20:35.784Z,995
2018-07-25T06:20:55.870Z,995
2018-07-25T06:21:16.006Z,995.1
2018-07-25T06:21:36.135Z,995
2018-07-25T06:21:56.292Z,995.1
2018-07-25T06:22:16.412Z,995.1
2018-07-25T06:22:36.539Z,995.1
2018-07-25T06:22:56.676Z,995.1
2018-07-25T06:23:16.837Z,995.1
2018-07-25T06:23:36.935Z,995.1
2018-07-25T06:23:57.095Z,995.1
2018-07-25T06:24:17.296Z,995.1
2018-07-25T06:24:37.437Z,995.1
2018-07-25T06:24:57.634Z,995.1
2018-07-25T06:25:17.793Z,995.1
2018-07-25T06:25:37.981Z,995.1
2018-07-25T06:25:58.159Z,995.1
2018-07-25T06:26:18.303Z,995.1
2018-07-25T06:26:38.432Z,995.1
2018-07-25T06:26:58.595Z,995.1
2018-07-25T06:27:18.737Z,995.1
2018-07-25T06:27:38.897Z,995.2
2018-07-25T06:27:59.063Z,995.1
2018-07-25T06:28:19.221Z,995.2
2018-07-25T06:28:39.390Z,995.1
2018-07-25T06:28:59.543Z,995.1
2018-07-25T06:29:19.698Z,995.1
2018-07-25T06:29:39.836Z,995.1
2018-07-25T06:29:59.959Z,995.1
2018-07-25T06:30:20.080Z,995.1
2018-07-25T06:30:40.240Z,995.1
2018-07-25T06:31:00.402Z,995.1
2018-07-25T06:31:20.582Z,995.1
2018-07-25T06:31:40.727Z,995.1
2018-07-25T06:32:00.877Z,995.2
2018-07-25T06:32:21.036Z,995.2
2018-07-25T06:32:41.199Z,995.1
2018-07-25T06:33:01.343Z,995.1
2018-07-25T06:33:21.494Z,995.1
2018-07-25T06:33:41.671Z,995.2
2018-07-25T06:34:01.836Z,995.1
2018-07-25T06:34:21.992Z,995.2
2018-07-25T06:34:42.185Z,995.1
2018-07-25T06:35:02.407Z,995.1
2018-07-25T06:35:22.563Z,995.2
2018-07-25T06:35:42.713Z,995.2
2018-07-25T06:36:02.880Z,995.1
2018-07-25T06:36:23.043Z,995.1
2018-07-25T06:36:43.220Z,995.1
2018-07-25T06:37:03.482Z,995.1
2018-07-25T06:37:23.643Z,995.2
2018-07-25T06:37:43.786Z,995.1
2018-07-25T06:38:04.130Z,995.1
2018-07-25T06:38:24.237Z,995.1
2018-07-25T06:38:44.410Z,995.2
2018-07-25T06:39:04.565Z,995.1
2018-07-25T06:39:24.702Z,995.1
2018-07-25T06:39:44.844Z,995.1
2018-07-25T06:40:05.018Z,995.1
2018-07-25T06:40:25.191Z,995.1
2018-07-25T06:40:45.343Z,995.1
2018-07-25T06:41:05.499Z,995.1
2018-07-25T06:41:25.680Z,995.1
2018-07-25T06:41:45.833Z,995.1
2018-07-25T06:42:05.989Z,995.1
2018-07-25T06:42:26.161Z,995.1
2018-07-25T06:42:46.323Z,995.2
2018-07-25T06:43:06.498Z,995.2
2018-07-25T06:43:26.757Z,995.2
2018-07-25T06:43:46.953Z,995.2
2018-07-25T06:44:07.003Z,995.2
2018-07-25T06:44:27.165Z,995.2
2018-07-25T06:44:47.320Z,995.2
2018-07-25T06:45:07.458Z,995.2
2018-07-25T06:45:27.622Z,995.2
2018-07-25T06:45:47.800Z,995.2
2018-07-25T06:46:07.970Z,995.2
2018-07-25T06:46:28.103Z,995.2
2018-07-25T06:46:48.241Z,995.2
2018-07-25T06:47:08.403Z,995.2
2018-07-25T06:47:28.572Z,995.2
2018-07-25T06:47:48.733Z,995.2
2018-07-25T06:48:08.877Z,995.2
2018-07-25T06:48:29.045Z,995.1
2018-07-25T06:48:49.249Z,995.2
2018-07-25T06:49:09.407Z,995.2
2018-07-25T06:49:29.557Z,995.2
2018-07-25T06:49:49.732Z,995.1
2018-07-25T06:50:09.900Z,995.1
2018-07-25T06:50:30.029Z,995.2
2018-07-25T06:50:50.242Z,995.2
2018-07-25T06:51:10.377Z,995.2
2018-07-25T06:51:30.536Z,995.2
2018-07-25T06:51:50.682Z,995.2
2018-07-25T06:52:10.888Z,995.2
2018-07-25T06:52:31.046Z,995.2
2018-07-25T06:52:51.210Z,995.1
2018-07-25T06:53:11.396Z,995.2
2018-07-25T06:53:31.559Z,995.1
2018-07-25T06:53:51.702Z,995.1
2018-07-25T06:54:11.875Z,995.1
2018-07-25T06:54:32.058Z,995.1
2018-07-25T06:54:52.226Z,995.1
2018-07-25T06:55:12.398Z,995.1
2018-07-25T06:55:32.552Z,995.1
2018-07-25T06:55:52.705Z,995.1
2018-07-25T06:56:12.852Z,995.1
2018-07-25T06:56:32.980Z,995.1
2018-07-25T06:56:53.134Z,995.1
2018-07-25T06:57:13.371Z,995.1
2018-07-25T06:57:33.435Z,995.1
2018-07-25T06:57:53.594Z,995.1
2018-07-25T06:58:13.767Z,995.1
2018-07-25T06:58:33.905Z,995.1
2018-07-25T06:58:54.069Z,995.1
2018-07-25T06:59:14.222Z,995.2
2018-07-25T06:59:34.373Z,995.1
2018-07-25T06:59:54.531Z,995.2
2018-07-25T07:00:14.697Z,995.1
2018-07-25T07:00:34.854Z,995.2
2018-07-25T07:00:54.998Z,995.2
2018-07-25T07:01:15.165Z,995.2
2018-07-25T07:01:35.334Z,995.2
2018-07-25T07:01:55.493Z,995.2
2018-07-25T07:02:15.647Z,995.2
2018-07-25T07:02:35.809Z,995.2
2018-07-25T07:02:55.977Z,995.2
2018-07-25T07:03:16.111Z,995.2
2018-07-25T07:03:36.284Z,995.2
2018-07-25T07:03:56.443Z,995.2
2018-07-25T07:04:16.586Z,995.2
2018-07-25T07:04:36.755Z,995.2
2018-07-25T07:04:56.912Z,995.2
2018-07-25T07:05:17.048Z,995.2
2018-07-25T07:05:37.206Z,995.2
2018-07-25T07:05:57.364Z,995.2
2018-07-25T07:06:17.513Z,995.2
2018-07-25T07:06:37.694Z,995.2
2018-07-25T07:06:58.094Z,995.2
2018-07-25T07:07:18.210Z,995.2
2018-07-25T07:07:38.376Z,995.3
2018-07-25T07:07:58.585Z,995.2
2018-07-25T07:08:18.751Z,995.2
2018-07-25T07:08:38.946Z,995.3
2018-07-25T07:08:59.162Z,995.3
2018-07-25T07:09:19.325Z,995.3
2018-07-25T07:09:39.465Z,995.3
2018-07-25T07:09:59.609Z,995.4
2018-07-25T07:10:19.770Z,995.4
2018-07-25T07:10:39.927Z,995.4
2018-07-25T07:11:00.061Z,995.4
2018-07-25T07:11:20.225Z,995.3
2018-07-25T07:11:40.434Z,995.3
2018-07-25T07:12:00.644Z,995.3
2018-07-25T07:12:20.772Z,995.3
2018-07-25T07:12:40.916Z,995.3
2018-07-25T07:13:01.086Z,995.3
2018-07-25T07:13:21.261Z,995.3
2018-07-25T07:13:41.453Z,995.3
2018-07-25T07:14:01.667Z,995.3
2018-07-25T07:14:21.832Z,995.3
2018-07-25T07:14:41.988Z,995.3
2018-07-25T07:15:02.151Z,995.2
2018-07-25T07:15:22.355Z,995.3
2018-07-25T07:15:42.434Z,995.2
2018-07-25T07:16:02.594Z,995.2
2018-07-25T07:16:22.778Z,995.2
2018-07-25T07:16:42.927Z,995.3
2018-07-25T07:17:03.075Z,995.3
2018-07-25T07:17:23.215Z,995.2
2018-07-25T07:17:43.359Z,995.2
2018-07-25T07:18:03.522Z,995.2
2018-07-25T07:18:23.679Z,995.2
2018-07-25T07:18:43.826Z,995.3
2018-07-25T07:19:03.972Z,995.3
2018-07-25T07:19:24.129Z,995.3
2018-07-25T07:19:44.284Z,995.3
2018-07-25T07:20:04.458Z,995.3
2018-07-25T07:20:24.618Z,995.3
2018-07-25T07:20:44.780Z,995.3
2018-07-25T07:21:04.947Z,995.3
2018-07-25T07:21:25.103Z,995.3
2018-07-25T07:21:45.295Z,995.3
2018-07-25T07:22:05.444Z,995.3
2018-07-25T07:22:25.616Z,995.3
2018-07-25T07:22:45.775Z,995.3
2018-07-25T07:23:05.935Z,995.3
2018-07-25T07:23:26.089Z,995.3
2018-07-25T07:23:46.269Z,995.3
2018-07-25T07:24:06.475Z,995.3
2018-07-25T07:24:26.621Z,995.3
2018-07-25T07:24:46.751Z,995.3
2018-07-25T07:25:06.886Z,995.3
2018-07-25T07:25:27.048Z,995.3
2018-07-25T07:25:47.289Z,995.3
2018-07-25T07:26:07.377Z,995.3
2018-07-25T07:26:27.520Z,995.3
2018-07-25T07:26:47.710Z,995.3
2018-07-25T07:27:07.864Z,995.3
2018-07-25T07:27:28.048Z,995.3
2018-07-25T07:27:48.184Z,995.4
2018-07-25T07:28:08.341Z,995.3
2018-07-25T07:28:28.483Z,995.3
2018-07-25T07:28:48.629Z,995.3
2018-07-25T07:29:08.826Z,995.3
2018-07-25T07:29:28.976Z,995.3
2018-07-25T07:29:49.127Z,995.3
2018-07-25T07:30:09.271Z,995.3
2018-07-25T07:30:29.428Z,995.3
2018-07-25T07:30:49.637Z,995.3
2018-07-25T07:31:09.823Z,995.3
2018-07-25T07:31:30.094Z,995.3
2018-07-25T07:31:50.172Z,995.4
2018-07-25T07:32:10.354Z,995.4
2018-07-25T07:32:30.524Z,995.4
2018-07-25T07:32:50.707Z,995.4
2018-07-25T07:33:10.881Z,995.4
2018-07-25T07:33:31.040Z,995.4
2018-07-25T07:33:51.200Z,995.4
2018-07-25T07:34:11.350Z,995.4
2018-07-25T07:34:31.514Z,995.4
2018-07-25T07:34:51.647Z,995.4
2018-07-25T07:35:11.877Z,995.4
2018-07-25T07:35:32.013Z,995.4
2018-07-25T07:35:52.188Z,995.4
2018-07-25T07:36:12.364Z,995.4
2018-07-25T07:36:32.502Z,995.4
2018-07-25T07:36:52.650Z,995.4
2018-07-25T07:37:12.860Z,995.4
2018-07-25T07:37:33.133Z,995.4
2018-07-25T07:37:53.293Z,995.4
2018-07-25T07:38:13.284Z,995.4
2018-07-25T07:38:33.435Z,995.4
2018-07-25T07:38:53.595Z,995.4
2018-07-25T07:39:13.799Z,995.4
2018-07-25T07:39:33.964Z,995.4
2018-07-25T07:39:54.156Z,995.4
2018-07-25T07:40:14.338Z,995.4
2018-07-25T07:40:34.493Z,995.4
2018-07-25T07:40:54.666Z,995.4
2018-07-25T07:41:14.860Z,995.4
2018-07-25T07:41:35.029Z,995.4
2018-07-25T07:41:55.208Z,995.4
2018-07-25T07:42:15.405Z,995.4
2018-07-25T07:42:35.577Z,995.4
2018-07-25T07:42:55.725Z,995.4
2018-07-25T07:43:15.880Z,995.3
2018-07-25T07:43:36.054Z,995.3
2018-07-25T07:43:56.198Z,995.4
2018-07-25T07:44:16.430Z,995.3
2018-07-25T07:44:36.515Z,995.3
2018-07-25T07:44:56.669Z,995.3
2018-07-25T07:45:16.820Z,995.3
2018-07-25T07:45:37.019Z,995.3
2018-07-25T07:45:57.173Z,995.3
2018-07-25T07:46:17.335Z,995.3
2018-07-25T07:46:37.502Z,995.3
2018-07-25T07:46:57.648Z,995.3
2018-07-25T07:47:17.788Z,995.3
2018-07-25T07:47:38.016Z,995.2
2018-07-25T07:47:58.097Z,995.3
2018-07-25T07:48:18.263Z,995.3
2018-07-25T07:48:38.432Z,995.3
2018-07-25T07:48:58.571Z,995.3
2018-07-25T07:49:18.737Z,995.3
2018-07-25T07:49:38.940Z,995.3
2018-07-25T07:49:59.092Z,995.3
2018-07-25T07:50:19.267Z,995.3
2018-07-25T07:50:39.426Z,995.4
2018-07-25T07:50:59.582Z,995.3
2018-07-25T07:51:19.761Z,995.4
2018-07-25T07:51:39.908Z,995.3
2018-07-25T07:52:00.059Z,995.4
2018-07-25T07:52:20.192Z,995.4
2018-07-25T07:52:40.360Z,995.4
2018-07-25T07:53:00.502Z,995.4
2018-07-25T07:53:20.630Z,995.4
2018-07-25T07:53:40.799Z,995.4
2018-07-25T07:54:01.102Z,995.4
2018-07-25T07:54:21.261Z,995.4
2018-07-25T07:54:41.422Z,995.4
2018-07-25T07:55:01.608Z,995.3
2018-07-25T07:55:21.786Z,995.4
2018-07-25T07:55:41.939Z,995.4
2018-07-25T07:56:02.094Z,995.4
2018-07-25T07:56:22.307Z,995.4
2018-07-25T07:56:42.450Z,995.4
2018-07-25T07:57:02.606Z,995.4
2018-07-25T07:57:22.801Z,995.4
2018-07-25T07:57:42.961Z,995.4
2018-07-25T07:58:03.117Z,995.4
2018-07-25T07:58:23.328Z,995.4
2018-07-25T07:58:43.481Z,995.4
2018-07-25T07:59:03.672Z,995.4
2018-07-25T07:59:23.939Z,995.4
2018-07-25T07:59:44.107Z,995.5
2018-07-25T08:00:04.270Z,995.4
2018-07-25T08:00:24.396Z,995.4
2018-07-25T08:00:44.553Z,995.4
2018-07-25T08:01:04.750Z,995.4
2018-07-25T08:01:24.918Z,995.4
2018-07-25T08:01:45.063Z,995.3
2018-07-25T08:02:05.211Z,995.4
2018-07-25T08:02:25.354Z,995.3
2018-07-25T08:02:45.505Z,995.3
2018-07-25T08:03:05.744Z,995.4
2018-07-25T08:03:25.991Z,995.3
2018-07-25T08:03:46.128Z,995.3
2018-07-25T08:04:06.293Z,995.4
2018-07-25T08:04:26.466Z,995.3
2018-07-25T08:04:46.615Z,995.4
2018-07-25T08:05:06.857Z,995.4
2018-07-25T08:05:26.957Z,995.4
2018-07-25T08:05:47.100Z,995.4
2018-07-25T08:06:07.274Z,995.4
2018-07-25T08:06:27.461Z,995.4
2018-07-25T08:06:47.638Z,995.4
2018-07-25T08:07:07.795Z,995.4
2018-07-25T08:07:27.952Z,995.4
2018-07-25T08:07:48.102Z,995.4
2018-07-25T08:08:08.289Z,995.4
2018-07-25T08:08:28.475Z,995.4
2018-07-25T08:08:48.610Z,995.4
2018-07-25T08:09:08.760Z,995.4
2018-07-25T08:09:28.904Z,995.4
2018-07-25T08:09:49.074Z,995.4
2018-07-25T08:10:09.209Z,995.4
2018-07-25T08:10:29.430Z,995.4
2018-07-25T08:10:49.603Z,995.4
2018-07-25T08:11:09.743Z,995.4
2018-07-25T08:11:29.930Z,995.4
2018-07-25T08:11:50.083Z,995.4
2018-07-25T08:12:10.249Z,995.4
2018-07-25T08:12:30.404Z,995.4
2018-07-25T08:12:50.562Z,995.4
2018-07-25T08:13:10.730Z,995.4
2018-07-25T08:13:30.907Z,995.4
2018-07-25T08:13:51.048Z,995.4
2018-07-25T08:14:11.235Z,995.4
2018-07-25T08:14:31.376Z,995.5
2018-07-25T08:14:51.557Z,995.5
2018-07-25T08:15:11.733Z,995.4
2018-07-25T08:15:31.886Z,995.4
2018-07-25T08:15:52.044Z,995.4
2018-07-25T08:16:12.200Z,995.4
2018-07-25T08:16:32.388Z,995.4
2018-07-25T08:16:52.548Z,995.3
2018-07-25T08:17:12.681Z,995.4
2018-07-25T08:17:32.897Z,995.3
2018-07-25T08:17:53.071Z,995.4
2018-07-25T08:18:13.265Z,995.4
2018-07-25T08:18:33.435Z,995.4
2018-07-25T08:18:53.624Z,995.3
2018-07-25T08:19:13.860Z,995.3
2018-07-25T08:19:33.999Z,995.3
2018-07-25T08:19:54.164Z,995.3
2018-07-25T08:20:14.463Z,995.3
2018-07-25T08:20:34.611Z,995.4
2018-07-25T08:20:54.752Z,995.4
2018-07-25T08:21:14.982Z,995.4
2018-07-25T08:21:35.176Z,995.4
2018-07-25T08:21:55.295Z,995.4
2018-07-25T08:22:15.461Z,995.4
2018-07-25T08:22:35.609Z,995.3
2018-07-25T08:22:55.771Z,995.3
2018-07-25T08:23:15.937Z,995.3
2018-07-25T08:23:36.098Z,995.4
2018-07-25T08:23:56.303Z,995.4
2018-07-25T08:24:16.529Z,995.4
2018-07-25T08:24:36.708Z,995.4
2018-07-25T08:24:56.872Z,995.3
2018-07-25T08:25:17.024Z,995.3
2018-07-25T08:25:37.239Z,995.3
2018-07-25T08:25:57.370Z,995.3
2018-07-25T08:26:17.588Z,995.3
2018-07-25T08:26:37.744Z,995.4
2018-07-25T08:26:57.901Z,995.4
2018-07-25T08:27:18.038Z,995.4
2018-07-25T08:27:38.193Z,995.4
2018-07-25T08:27:58.351Z,995.4
2018-07-25T08:28:18.514Z,995.4
2018-07-25T08:28:38.669Z,995.4
2018-07-25T08:28:58.814Z,995.4
2018-07-25T08:29:18.966Z,995.4
2018-07-25T08:29:39.127Z,995.3
2018-07-25T08:29:59.296Z,995.3
2018-07-25T08:30:19.465Z,995.3
2018-07-25T08:30:39.652Z,995.3
2018-07-25T08:30:59.829Z,995.3
2018-07-25T08:31:19.995Z,995.2
2018-07-25T08:31:40.121Z,995.3
2018-07-25T08:32:00.289Z,995.3
2018-07-25T08:32:20.455Z,995.3
2018-07-25T08:32:40.632Z,995.3
2018-07-25T08:33:00.780Z,995.3
2018-07-25T08:33:20.952Z,995.3
2018-07-25T08:33:41.123Z,995.3
2018-07-25T08:34:01.293Z,995.3
2018-07-25T08:34:21.478Z,995.3
2018-07-25T08:34:41.685Z,995.3
2018-07-25T08:35:01.807Z,995.3
2018-07-25T08:35:21.973Z,995.2
2018-07-25T08:35:42.135Z,995.2
2018-07-25T08:36:02.303Z,995.2
2018-07-25T08:36:22.474Z,995.2
2018-07-25T08:36:42.642Z,995.3
2018-07-25T08:37:02.793Z,995.3
2018-07-25T08:37:22.961Z,995.2
2018-07-25T08:37:43.121Z,995.2
2018-07-25T08:38:03.285Z,995.2
2018-07-25T08:38:23.477Z,995.2
2018-07-25T08:38:43.647Z,995.2
2018-07-25T08:39:03.818Z,995.2
2018-07-25T08:39:24.363Z,995.3
2018-07-25T08:39:45.773Z,995.2
2018-07-25T08:40:07.036Z,995.2
2018-07-25T08:40:28.042Z,995.3
2018-07-25T08:40:49.344Z,995.3
2018-07-25T08:41:10.332Z,995.3
2018-07-25T08:41:30.805Z,995.3
2018-07-25T08:41:50.993Z,995.3
2018-07-25T08:42:11.148Z,995.3
2018-07-25T08:42:31.296Z,995.3
2018-07-25T08:42:51.477Z,995.3
2018-07-25T08:43:11.622Z,995.3
2018-07-25T08:43:31.821Z,995.3
2018-07-25T08:43:51.980Z,995.3
2018-07-25T08:44:12.142Z,995.3
2018-07-25T08:44:32.315Z,995.3
2018-07-25T08:44:52.485Z,995.3
2018-07-25T08:45:12.639Z,995.3
2018-07-25T08:45:32.810Z,995.3
2018-07-25T08:45:52.980Z,995.3
2018-07-25T08:46:13.125Z,995.3
2018-07-25T08:46:33.288Z,995.2
2018-07-25T08:46:53.501Z,995.3
2018-07-25T08:47:13.630Z,995.2
2018-07-25T08:47:33.813Z,995.2
2018-07-25T08:47:53.955Z,995.2
2018-07-25T08:48:14.116Z,995.2
2018-07-25T08:48:34.315Z,995.2
2018-07-25T08:48:54.517Z,995.2
2018-07-25T08:49:14.657Z,995.2
2018-07-25T08:49:34.828Z,995.2
2018-07-25T08:49:54.959Z,995.2
2018-07-25T08:50:15.096Z,995.3
2018-07-25T08:50:35.256Z,995.2
2018-07-25T08:50:55.413Z,995.2
2018-07-25T08:51:15.548Z,995.3
2018-07-25T08:51:35.737Z,995.2
2018-07-25T08:51:55.904Z,995.2
2018-07-25T08:52:16.079Z,995.2
2018-07-25T08:52:36.579Z,995.3
2018-07-25T08:52:56.711Z,995.3
2018-07-25T08:53:16.851Z,995.3
2018-07-25T08:53:37.018Z,995.3
2018-07-25T08:53:57.221Z,995.3
2018-07-25T08:54:17.370Z,995.3
2018-07-25T08:54:37.525Z,995.3
2018-07-25T08:54:57.682Z,995.2
2018-07-25T08:55:17.837Z,995.3
2018-07-25T08:55:37.995Z,995.3
2018-07-25T08:55:58.178Z,995.3
2018-07-25T08:56:18.330Z,995.3
2018-07-25T08:56:38.478Z,995.2
2018-07-25T08:56:58.641Z,995.2
2018-07-25T08:57:18.795Z,995.2
2018-07-25T08:57:38.992Z,995.2
2018-07-25T08:57:59.150Z,995.3
2018-07-25T08:58:19.360Z,995.3
2018-07-25T08:58:39.530Z,995.2
2018-07-25T08:58:59.702Z,995.2
2018-07-25T08:59:19.857Z,995.3
2018-07-25T08:59:40.027Z,995.3
2018-07-25T09:00:00.174Z,995.3
2018-07-25T09:00:20.384Z,995.2
2018-07-25T09:00:40.575Z,995.2
2018-07-25T09:01:00.768Z,995.2
2018-07-25T09:01:20.921Z,995.2
2018-07-25T09:01:41.098Z,995.2
2018-07-25T09:02:01.210Z,995.2
2018-07-25T09:02:21.411Z,995.2
2018-07-25T09:02:41.577Z,995.2
2018-07-25T09:03:01.732Z,995.2
2018-07-25T09:03:21.872Z,995.2
2018-07-25T09:03:42.043Z,995.1
2018-07-25T09:04:02.207Z,995.2
2018-07-25T09:04:22.393Z,995.3
2018-07-25T09:04:42.528Z,995.2
2018-07-25T09:05:02.679Z,995.2
2018-07-25T09:05:22.885Z,995.2
2018-07-25T09:05:43.036Z,995.1
2018-07-25T09:06:03.219Z,995.2
2018-07-25T09:06:23.550Z,995.2
2018-07-25T09:06:43.680Z,995.1
2018-07-25T09:07:03.835Z,995.1
2018-07-25T09:07:24.011Z,995.1
2018-07-25T09:07:44.322Z,995.1
2018-07-25T09:08:04.478Z,995.1
2018-07-25T09:08:24.631Z,995.1
2018-07-25T09:08:44.801Z,995.1
2018-07-25T09:09:04.950Z,995.1
2018-07-25T09:09:25.120Z,995.2
2018-07-25T09:09:45.385Z,995.1
2018-07-25T09:10:05.475Z,995.1
2018-07-25T09:10:25.626Z,995.1
2018-07-25T09:10:45.772Z,995.1
2018-07-25T09:11:05.911Z,995.1
2018-07-25T09:11:26.093Z,995.1
2018-07-25T09:11:46.187Z,995.1
2018-07-25T09:12:06.310Z,995.1
2018-07-25T09:12:26.492Z,995.1
2018-07-25T09:12:46.774Z,995.1
2018-07-25T09:13:07.055Z,995.1
2018-07-25T09:13:27.154Z,995.2
2018-07-25T09:13:47.320Z,995.1
2018-07-25T09:14:07.474Z,995.1
2018-07-25T09:14:27.616Z,995.1
2018-07-25T09:14:47.776Z,995.1
2018-07-25T09:15:07.950Z,995.1
2018-07-25T09:15:28.082Z,995.2
2018-07-25T09:15:48.246Z,995.1
2018-07-25T09:16:08.401Z,995.1
2018-07-25T09:16:28.609Z,995.2
2018-07-25T09:16:48.829Z,995.1
2018-07-25T09:24:55.338Z,995.2
2018-07-25T09:25:15.548Z,995.2
2018-07-25T09:25:35.743Z,995.2
2018-07-25T09:25:55.840Z,995.2
2018-07-25T09:26:16.035Z,995.3
2018-07-25T09:26:36.189Z,995.2
2018-07-25T09:26:56.437Z,995.2
2018-07-25T09:27:16.601Z,995.2
2018-07-25T09:27:36.768Z,995.2
2018-07-25T09:27:56.925Z,995.2
2018-07-25T09:28:17.090Z,995.2
2018-07-25T09:28:37.229Z,995.2
2018-07-25T09:28:57.421Z,995.2
2018-07-25T09:29:17.617Z,995.2
2018-07-25T09:29:37.780Z,995.2
2018-07-25T09:29:57.958Z,995.2
2018-07-25T09:30:18.119Z,995.2
2018-07-25T09:30:38.284Z,995.2
2018-07-25T09:30:58.480Z,995.2
2018-07-25T09:31:18.648Z,995.2
2018-07-25T09:31:38.819Z,995.2
2018-07-25T09:31:59.047Z,995.2
2018-07-25T09:32:19.203Z,995.2
2018-07-25T09:32:39.349Z,995.2
2018-07-25T09:32:59.515Z,995.3
2018-07-25T09:33:19.676Z,995.2
2018-07-25T09:33:39.918Z,995.2
2018-07-25T09:34:00.160Z,995.2
2018-07-25T09:34:20.261Z,995.2
2018-07-25T09:34:40.368Z,995.1
2018-07-25T09:35:00.516Z,995.2
2018-07-25T09:35:21.287Z,995.2
2018-07-25T09:35:41.422Z,995.2
2018-07-25T09:36:01.595Z,995.2
2018-07-25T09:36:21.789Z,995.2
2018-07-25T09:36:41.958Z,995.1
2018-07-25T09:37:02.242Z,995.1
2018-07-25T09:37:22.410Z,995.2
2018-07-25T09:37:42.595Z,995.1
2018-07-25T09:38:02.736Z,995.1
2018-07-25T09:38:22.897Z,995.2
2018-07-25T09:38:43.093Z,995.1
2018-07-25T09:39:03.289Z,995.1
2018-07-25T09:39:23.460Z,995.1
2018-07-25T09:39:43.631Z,995.1
2018-07-25T09:40:03.810Z,995.1
2018-07-25T09:40:23.949Z,995
2018-07-25T09:40:44.105Z,995
2018-07-25T09:41:04.357Z,995
2018-07-25T09:41:24.425Z,995
2018-07-25T09:41:44.565Z,995
2018-07-25T09:42:04.732Z,995.1
2018-07-25T09:42:24.900Z,995
2018-07-25T09:42:45.096Z,995.1
2018-07-25T09:43:05.283Z,995.2
2018-07-25T09:43:25.466Z,995
2018-07-25T09:43:45.622Z,995.1
2018-07-25T09:44:05.805Z,995.1
2018-07-25T09:44:26.622Z,995.1
2018-07-25T09:44:46.780Z,995.1
2018-07-25T09:45:06.926Z,995.1
2018-07-25T09:45:27.106Z,995.1
2018-07-25T09:45:47.860Z,995.1
2018-07-25T09:46:08.038Z,995.1
2018-07-25T09:46:28.326Z,995.1
2018-07-25T09:46:48.550Z,995.1
2018-07-25T09:47:08.890Z,995.1
2018-07-25T09:47:28.940Z,995.1
2018-07-25T09:47:49.110Z,995.2
2018-07-25T09:48:09.317Z,995.1
2018-07-25T09:48:29.431Z,995.1
2018-07-25T09:48:49.629Z,995.2
2018-07-25T09:49:09.775Z,995.1
2018-07-25T09:49:29.967Z,995.1
2018-07-25T09:49:50.140Z,995.2
2018-07-25T09:50:10.335Z,995.2
2018-07-25T09:57:01.035Z,995.2
2018-07-25T09:57:21.220Z,995.2
2018-07-25T09:57:41.422Z,995.2
2018-07-25T09:58:01.587Z,995.1
2018-07-25T09:58:21.781Z,995.2
2018-07-25T09:58:41.965Z,995.2
2018-07-25T09:59:02.192Z,995.2
2018-07-25T09:59:22.354Z,995.2
2018-07-25T09:59:42.513Z,995.2
2018-07-25T10:00:02.652Z,995.2
2018-07-25T10:00:22.825Z,995.2
2018-07-25T10:00:42.993Z,995.2
2018-07-25T10:01:03.201Z,995.2
2018-07-25T10:01:23.465Z,995.2
2018-07-25T10:01:43.654Z,995.2
2018-07-25T10:02:03.803Z,995.2
2018-07-25T10:02:24.022Z,995.2
2018-07-25T10:02:44.215Z,995.2
2018-07-25T10:03:04.375Z,995.2
2018-07-25T10:03:24.539Z,995.2
2018-07-25T10:03:44.745Z,995.2
2018-07-25T10:04:04.915Z,995.2
2018-07-25T10:04:25.751Z,995.2
2018-07-25T10:04:45.907Z,995.2
2018-07-25T10:05:06.074Z,995.1
2018-07-25T10:05:26.233Z,995.2
2018-07-25T10:05:46.407Z,995.2
2018-07-25T10:06:06.587Z,995.2
2018-07-25T10:06:26.734Z,995.2
2018-07-25T10:06:46.955Z,995.2
2018-07-25T10:07:07.130Z,995.1
2018-07-25T10:07:27.369Z,995.1
2018-07-25T10:07:47.879Z,995.1
2018-07-25T10:08:07.906Z,995.2
2018-07-25T10:08:28.093Z,995.2
2018-07-25T10:08:48.280Z,995.1
2018-07-25T10:09:08.476Z,995.1
2018-07-25T10:09:28.657Z,995.1
2018-07-25T10:09:48.809Z,995.1
2018-07-25T10:10:09.006Z,995.1
2018-07-25T10:10:29.242Z,995.2
2018-07-25T10:10:49.396Z,995.2
2018-07-25T10:11:09.614Z,995.1
2018-07-25T10:11:29.813Z,995.1
2018-07-25T10:11:50.078Z,995.1
2018-07-25T10:12:10.250Z,995.1
2018-07-25T10:12:30.433Z,995.1
2018-07-25T10:12:50.581Z,995.1